Time;durP1;ratioP1;P1;durP2;ratioP2;P2;SDS_P1;SDS_P2;PMS_P1;PMS_P2;Temp;Humidity;BMP_temperature;BMP_pressure;BME280_temperature;BME280_humidity;BME280_pressure;Samples;Min_cycle;Max_cycle;Signal;HPM_P1;HPM_P2
2021/08/01 00:01:02;;;;;;;13.57;7.03;;;;;;;17.73;61.82;98495.72;5035043;28;20067;-58
2021/08/01 00:03:28;;;;;;;11.07;6.90;;;;;;;17.70;61.80;98492.53;5052956;28;20041;-59
2021/08/01 00:05:53;;;;;;;16.35;8.30;;;;;;;17.69;61.70;98495.53;5051658;28;20053;-59
2021/08/01 00:08:19;;;;;;;12.20;7.60;;;;;;;17.68;62.01;98496.66;5052768;28;20410;-58
2021/08/01 00:10:47;;;;;;;12.43;7.95;;;;;;;17.65;61.99;98500.72;5051317;28;20502;-59
2021/08/01 00:13:13;;;;;;;15.48;8.07;;;;;;;17.65;61.72;98507.97;5052570;28;20127;-59
2021/08/01 00:15:39;;;;;;;11.35;7.55;;;;;;;17.63;62.25;98502.91;5052325;28;20128;-59
2021/08/01 00:18:04;;;;;;;14.05;7.60;;;;;;;17.60;62.27;98508.09;5051774;28;20080;-59
2021/08/01 00:20:30;;;;;;;17.58;7.78;;;;;;;17.57;62.46;98503.34;5051854;28;20037;-58
2021/08/01 00:22:56;;;;;;;10.20;7.20;;;;;;;17.53;62.59;98505.84;5052312;28;20052;-59
2021/08/01 00:25:24;;;;;;;11.18;7.38;;;;;;;17.53;62.44;98510.38;5050998;28;20049;-60
2021/08/01 00:27:53;;;;;;;11.55;7.95;;;;;;;17.53;62.44;98513.88;5034938;28;20052;-57
2021/08/01 00:30:18;;;;;;;11.15;7.80;;;;;;;17.50;62.61;98511.81;5050105;28;20041;-59
2021/08/01 00:32:44;;;;;;;10.68;7.60;;;;;;;17.46;62.78;98508.94;5052061;28;20512;-59
2021/08/01 00:35:11;;;;;;;8.98;7.25;;;;;;;17.46;62.70;98506.25;5034170;28;20045;-58
2021/08/01 00:37:37;;;;;;;13.88;7.55;;;;;;;17.44;62.75;98511.13;5051955;28;20076;-59
2021/08/01 00:40:07;;;;;;;11.43;7.47;;;;;;;17.42;62.99;98512.53;5052108;28;20094;-59
2021/08/01 00:42:33;;;;;;;11.68;7.47;;;;;;;17.42;62.99;98520.56;5051965;28;20041;-57
2021/08/01 00:44:59;;;;;;;10.73;8.20;;;;;;;17.40;63.09;98523.53;5051997;28;20048;-59
2021/08/01 00:47:24;;;;;;;9.15;7.43;;;;;;;17.40;63.25;98528.09;5050371;28;20051;-58
2021/08/01 00:49:51;;;;;;;11.95;7.43;;;;;;;17.39;63.24;98530.00;5033722;28;20068;-58
2021/08/01 00:52:17;;;;;;;10.57;7.82;;;;;;;17.38;63.45;98524.94;5050541;28;20082;-59
2021/08/01 00:54:45;;;;;;;13.38;7.85;;;;;;;17.37;63.43;98526.81;5050159;28;20503;-59
2021/08/01 00:57:11;;;;;;;15.18;8.30;;;;;;;17.34;63.59;98527.44;5050171;28;20098;-58
2021/08/01 00:59:39;;;;;;;15.13;8.93;;;;;;;17.31;63.68;98519.22;5050393;28;20041;-59
2021/08/01 01:02:09;;;;;;;12.75;8.25;;;;;;;17.31;63.73;98528.03;5051601;28;20037;-57
2021/08/01 01:04:58;;;;;;;14.65;7.85;;;;;;;17.28;63.97;98528.66;5033795;28;20140;-59
2021/08/01 01:07:45;;;;;;;14.68;8.15;;;;;;;17.29;63.86;98524.06;5033870;28;20063;-59
2021/08/01 01:10:27;;;;;;;10.23;7.55;;;;;;;17.28;63.87;98527.84;5033961;28;20063;-58
2021/08/01 01:13:13;;;;;;;9.75;7.07;;;;;;;17.26;63.82;98533.50;5035495;28;20045;-58
2021/08/01 01:15:44;;;;;;;12.90;8.07;;;;;;;17.24;63.78;98531.13;5033608;28;20514;-59
2021/08/01 01:18:14;;;;;;;10.38;7.13;;;;;;;17.27;63.86;98543.13;5050094;28;20099;-58
2021/08/01 01:20:40;;;;;;;;;;;;;;;17.28;64.12;98539.34;5050792;28;20048;-58
2021/08/01 01:23:12;;;;;;;10.05;7.15;;;;;;;17.25;64.52;98545.31;5051109;28;20306;-58
2021/08/01 01:26:00;;;;;;;8.45;7.00;;;;;;;17.23;64.41;98542.94;5051482;28;20080;-58
2021/08/01 01:28:37;;;;;;;9.30;7.40;;;;;;;17.21;64.66;98534.41;5051603;28;20044;-59
2021/08/01 01:31:13;;;;;;;11.90;7.25;;;;;;;17.22;64.79;98537.88;5051237;28;20114;-58
2021/08/01 01:33:46;;;;;;;13.10;7.75;;;;;;;17.22;64.70;98544.03;5050149;28;20056;-59
2021/08/01 01:36:17;;;;;;;10.27;7.78;;;;;;;17.23;64.64;98545.59;5051145;28;20127;-58
2021/08/01 01:38:45;;;;;;;12.43;7.30;;;;;;;17.25;65.00;98551.47;5033676;28;20482;-58
2021/08/01 01:41:25;;;;;;;10.07;6.97;;;;;;;17.28;64.96;98542.03;5052257;28;20084;-58
2021/08/01 01:44:04;;;;;;;12.55;7.80;;;;;;;17.34;64.82;98543.50;5039007;28;20116;-59
2021/08/01 01:46:31;;;;;;;13.10;7.15;;;;;;;17.43;64.24;98548.94;5037195;28;20059;-58
2021/08/01 01:48:57;;;;;;;9.80;6.90;;;;;;;17.55;63.92;98543.81;5054068;28;20037;-59
2021/08/01 01:51:24;;;;;;;11.43;7.15;;;;;;;17.67;63.65;98549.44;5021151;28;20053;-58
2021/08/01 01:53:50;;;;;;;10.77;7.35;;;;;;;17.82;63.34;98547.50;5037230;28;20041;-58
2021/08/01 01:56:17;;;;;;;10.07;6.97;;;;;;;17.99;62.57;98552.19;5053715;28;20140;-59
2021/08/01 01:58:43;;;;;;;12.57;7.13;;;;;;;18.16;62.19;98552.31;5053894;28;20044;-59
2021/08/01 02:01:10;;;;;;;10.82;6.45;;;;;;;18.44;61.18;98549.44;5055178;28;20052;-59
2021/08/01 02:03:36;;;;;;;9.43;6.50;;;;;;;18.70;60.43;98554.91;5054818;28;20517;-59
2021/08/01 02:06:07;;;;;;;11.55;7.30;;;;;;;18.91;60.13;98560.50;5054836;28;20044;-58
2021/08/01 02:09:01;;;;;;;13.30;7.00;;;;;;;19.16;58.91;98557.09;5055246;28;20052;-57
2021/08/01 02:12:04;;;;;;;;;;;;;;;19.54;58.05;98556.50;5053915;28;20053;-58
2021/08/01 02:14:46;;;;;;;9.93;6.40;;;;;;;19.88;56.75;98554.91;5054947;28;19924;-59
2021/08/01 02:17:18;;;;;;;8.65;6.40;;;;;;;20.11;55.93;98558.97;5054748;28;20094;-58
2021/08/01 02:19:45;;;;;;;9.35;6.07;;;;;;;20.26;55.20;98564.94;5036707;28;20085;-59
2021/08/01 02:22:13;;;;;;;9.45;6.75;;;;;;;20.46;54.98;98566.94;5036857;28;20049;-58
2021/08/01 02:24:39;;;;;;;9.25;6.18;;;;;;;20.54;54.52;98573.44;5054799;28;20044;-58
2021/08/01 02:27:06;;;;;;;14.43;6.45;;;;;;;20.43;54.81;98567.59;5036614;28;20087;-59
2021/08/01 02:29:32;;;;;;;10.93;6.53;;;;;;;20.36;54.58;98557.34;5036625;28;20045;-59
2021/08/01 02:31:59;;;;;;;9.38;6.07;;;;;;;20.62;54.17;98561.88;5053373;28;20041;-59
2021/08/01 02:34:30;;;;;;;9.07;5.88;;;;;;;20.91;53.20;98561.06;5037231;28;20056;-59
2021/08/01 02:36:57;;;;;;;14.82;6.57;;;;;;;21.30;52.31;98567.97;5019973;28;20130;-59
2021/08/01 02:39:23;;;;;;;8.32;5.88;;;;;;;21.72;51.07;98551.78;5053155;28;20128;-60
2021/08/01 02:41:51;;;;;;;10.80;5.35;;;;;;;22.09;49.88;98568.09;5053138;28;20052;-59
2021/08/01 02:44:33;;;;;;;8.40;5.70;;;;;;;21.93;49.88;98564.44;5037152;28;20538;-60
2021/08/01 02:46:59;;;;;;;12.02;6.05;;;;;;;21.74;50.49;98567.66;5036211;28;20075;-59
2021/08/01 02:49:32;;;;;;;11.48;5.78;;;;;;;22.03;49.69;98569.44;5053010;28;20482;-60
2021/08/01 02:52:00;;;;;;;12.00;6.22;;;;;;;22.44;48.39;98565.84;5052056;28;20143;-59
2021/08/01 02:54:27;;;;;;;7.32;6.10;;;;;;;22.78;48.17;98574.63;5052914;28;20581;-60
2021/08/01 02:56:59;;;;;;;7.13;5.25;;;;;;;23.22;46.76;98572.13;5036008;28;20049;-58
2021/08/01 02:59:26;;;;;;;11.50;5.78;;;;;;;23.62;46.13;98573.25;5052779;28;20036;-59
2021/08/01 03:01:56;;;;;;;10.10;5.85;;;;;;;23.79;45.13;98576.50;5052374;28;20514;-58
2021/08/01 03:04:27;;;;;;;8.82;5.97;;;;;;;24.06;44.19;98576.03;5052673;28;20045;-60
2021/08/01 03:06:53;;;;;;;8.02;5.70;;;;;;;24.09;44.51;98575.34;5053558;28;20433;-58
2021/08/01 03:09:19;;;;;;;9.52;6.28;;;;;;;24.36;43.93;98574.53;5036073;28;20052;-57
2021/08/01 03:11:46;;;;;;;7.40;5.68;;;;;;;24.56;43.43;98580.03;5053829;28;20406;-58
2021/08/01 03:14:12;;;;;;;9.77;5.60;;;;;;;24.60;43.40;98573.59;5053855;28;20098;-58
2021/08/01 03:16:39;;;;;;;14.25;5.70;;;;;;;24.37;43.19;98578.00;5053680;28;20045;-59
2021/08/01 03:19:05;;;;;;;18.40;6.50;;;;;;;24.09;44.46;98573.44;5035324;28;20084;-58
2021/08/01 03:21:35;;;;;;;8.38;5.43;;;;;;;23.91;44.21;98583.78;5053410;28;20079;-58
2021/08/01 03:24:30;;;;;;;9.10;5.80;;;;;;;23.73;44.70;98579.78;5048552;28;20502;-58
2021/08/01 03:27:02;;;;;;;6.00;5.30;;;;;;;23.75;44.50;98582.94;5036319;28;20091;-58
2021/08/01 03:29:28;;;;;;;9.93;5.70;;;;;;;23.84;44.55;98585.50;5052074;28;20041;-59
2021/08/01 03:31:54;;;;;;;11.75;5.90;;;;;;;23.88;44.38;98587.16;5051987;28;20045;-58
2021/08/01 03:34:21;;;;;;;12.55;6.10;;;;;;;23.92;44.69;98581.88;5053726;28;20128;-59
2021/08/01 03:36:48;;;;;;;8.20;5.40;;;;;;;23.91;44.33;98593.81;5053089;28;20457;-59
2021/08/01 03:39:19;;;;;;;6.20;5.40;;;;;;;23.84;44.79;98594.41;5053640;28;20044;-59
2021/08/01 03:41:52;;;;;;;8.63;5.82;;;;;;;23.89;44.14;98596.88;5053342;28;20049;-59
2021/08/01 03:44:21;;;;;;;11.02;5.95;;;;;;;23.87;45.09;98593.72;5053470;28;20040;-59
2021/08/01 03:46:47;;;;;;;10.27;5.78;;;;;;;23.93;45.14;98591.56;5051690;28;20516;-59
2021/08/01 03:49:13;;;;;;;8.10;5.68;;;;;;;23.90;45.05;98595.75;5052887;28;20044;-58
2021/08/01 03:51:39;;;;;;;7.97;5.93;;;;;;;23.78;44.84;98598.50;5053025;28;20045;-59
2021/08/01 03:54:04;;;;;;;6.47;5.88;;;;;;;23.83;45.44;98594.78;5053286;28;20041;-59
2021/08/01 03:56:30;;;;;;;7.93;5.80;;;;;;;23.97;44.26;98597.84;5053155;28;20056;-59
2021/08/01 03:58:56;;;;;;;10.90;6.00;;;;;;;23.99;44.48;98601.78;5053232;28;20037;-59
2021/08/01 04:01:22;;;;;;;7.25;5.72;;;;;;;23.94;44.41;98596.66;5035157;28;20052;-59
2021/08/01 04:03:48;;;;;;;7.63;5.68;;;;;;;23.97;44.67;98597.84;5034650;28;20402;-58
2021/08/01 04:06:13;;;;;;;7.40;5.82;;;;;;;24.08;44.40;98604.34;5034698;28;20060;-58
2021/08/01 04:08:39;;;;;;;8.23;5.38;;;;;;;24.17;43.83;98593.34;5051882;28;20048;-58
2021/08/01 04:11:05;;;;;;;10.35;5.70;;;;;;;24.26;43.54;98600.19;5053003;28;20051;-59
2021/08/01 04:13:31;;;;;;;7.47;5.68;;;;;;;24.30;43.97;98603.00;5051370;28;20159;-59
2021/08/01 04:15:57;;;;;;;9.93;6.00;;;;;;;24.50;43.37;98612.03;5052548;28;20076;-58
2021/08/01 04:18:23;;;;;;;8.85;5.20;;;;;;;24.76;42.62;98614.22;5052322;28;20134;-58
2021/08/01 04:20:48;;;;;;;7.90;5.20;;;;;;;24.99;42.76;98616.31;5051073;28;20045;-59
2021/08/01 04:23:14;;;;;;;7.78;5.38;;;;;;;25.06;42.97;98613.75;5050907;28;20076;-59
2021/08/01 04:25:40;;;;;;;9.07;5.43;;;;;;;25.21;42.42;98607.56;5052163;28;20041;-59
2021/08/01 04:28:05;;;;;;;8.55;5.50;;;;;;;25.48;41.73;98613.97;5052230;28;20509;-59
2021/08/01 04:30:31;;;;;;;11.43;5.47;;;;;;;25.73;41.00;98608.25;5052327;28;20049;-59
2021/08/01 04:32:57;;;;;;;9.35;5.03;;;;;;;25.87;41.25;98605.84;5050848;28;20041;-58
2021/08/01 04:35:23;;;;;;;9.80;5.38;;;;;;;25.94;40.84;98607.91;5052340;28;20049;-60
2021/08/01 04:37:49;;;;;;;6.03;4.95;;;;;;;26.09;40.75;98614.41;5052076;28;20052;-58
2021/08/01 04:40:14;;;;;;;7.07;5.05;;;;;;;26.16;40.19;98604.47;5052148;28;20553;-60
2021/08/01 04:42:40;;;;;;;7.55;5.43;;;;;;;26.15;40.34;98611.06;5052017;28;20037;-59
2021/08/01 04:45:06;;;;;;;8.95;5.07;;;;;;;26.09;40.13;98612.50;5052328;28;20048;-59
2021/08/01 04:47:32;;;;;;;9.60;5.28;;;;;;;26.15;40.08;98607.53;5050693;28;20033;-60
2021/08/01 04:49:58;;;;;;;10.75;5.15;;;;;;;26.34;39.91;98607.50;5052828;28;20061;-60
2021/08/01 04:52:23;;;;;;;8.55;5.15;;;;;;;26.54;39.72;98593.91;5052525;28;20095;-59
2021/08/01 04:54:49;;;;;;;7.45;5.07;;;;;;;26.73;39.01;98600.03;5051831;28;20403;-61
2021/08/01 04:57:15;;;;;;;6.70;4.65;;;;;;;26.85;39.02;98598.25;5051494;28;20449;-59
2021/08/01 04:59:40;;;;;;;7.47;5.28;;;;;;;26.99;39.03;98597.69;5051614;28;20045;-60
2021/08/01 05:02:06;;;;;;;9.63;5.30;;;;;;;26.96;39.11;98591.06;5033388;28;20041;-59
2021/08/01 05:04:32;;;;;;;6.25;4.90;;;;;;;26.76;39.75;98598.53;5051469;28;20041;-59
2021/08/01 05:06:58;;;;;;;6.63;5.13;;;;;;;26.62;40.32;98599.09;5051558;28;20482;-60
2021/08/01 05:09:23;;;;;;;9.07;4.90;;;;;;;26.49;39.67;98600.38;5051804;28;20044;-60
2021/08/01 05:11:49;;;;;;;9.38;5.00;;;;;;;26.24;40.44;98600.75;5051587;28;20049;-59
2021/08/01 05:14:15;;;;;;;8.15;4.85;;;;;;;26.25;40.84;98601.53;5051871;28;20040;-58
2021/08/01 05:16:41;;;;;;;7.95;4.88;;;;;;;26.26;40.79;98595.72;5050924;28;20128;-59
2021/08/01 05:19:07;;;;;;;9.73;5.63;;;;;;;26.24;40.93;98597.25;5050004;28;20403;-59
2021/08/01 05:21:33;;;;;;;9.68;5.32;;;;;;;26.18;41.54;98596.75;5051226;28;20071;-59
2021/08/01 05:23:59;;;;;;;13.25;5.53;;;;;;;26.18;41.41;98590.53;5050091;28;20048;-59
2021/08/01 05:26:24;;;;;;;6.50;4.97;;;;;;;26.15;41.31;98593.94;5050170;28;20140;-60
2021/08/01 05:28:50;;;;;;;6.55;4.80;;;;;;;25.96;41.73;98583.91;5051657;28;20208;-59
2021/08/01 05:31:16;;;;;;;7.55;4.93;;;;;;;25.95;41.62;98585.84;5051424;28;20490;-58
2021/08/01 05:33:42;;;;;;;6.85;5.18;;;;;;;25.89;41.55;98579.16;5050072;28;20543;-59
2021/08/01 05:36:08;;;;;;;6.45;4.93;;;;;;;25.91;40.81;98579.53;5051106;28;20079;-59
2021/08/01 05:38:38;;;;;;;7.30;5.13;;;;;;;25.91;40.24;98584.19;5051337;28;20510;-59
2021/08/01 05:41:04;;;;;;;;;;;;;;;25.96;40.00;98589.34;5051433;28;20048;-58
2021/08/01 05:43:30;;;;;;;8.05;5.07;;;;;;;25.98;39.27;98587.06;5051215;28;19920;-59
2021/08/01 05:45:56;;;;;;;9.68;4.70;;;;;;;25.81;39.12;98588.25;5051315;28;20107;-58
2021/08/01 05:48:22;;;;;;;12.52;4.97;;;;;;;25.88;39.80;98584.91;5051440;28;20048;-58
2021/08/01 05:50:48;;;;;;;9.13;4.88;;;;;;;26.12;39.51;98587.34;5050013;28;20524;-60
2021/08/01 05:53:14;;;;;;;8.68;5.10;;;;;;;26.41;39.57;98593.25;5050905;28;20055;-58
2021/08/01 05:55:39;;;;;;;7.70;4.97;;;;;;;26.65;39.46;98594.84;5050029;28;20526;-59
2021/08/01 05:58:05;;;;;;;7.75;4.85;;;;;;;26.83;38.63;98606.03;5051172;28;20094;-58
2021/08/01 06:00:31;;;;;;;8.30;4.97;;;;;;;26.86;39.00;98605.28;5050866;28;20086;-61
2021/08/01 06:02:56;;;;;;;8.85;4.90;;;;;;;26.94;38.98;98604.22;5051045;28;20076;-59
2021/08/01 06:05:23;;;;;;;10.90;5.32;;;;;;;26.88;37.23;98602.97;5050875;28;20049;-60
2021/08/01 06:07:49;;;;;;;13.13;5.60;;;;;;;26.94;37.70;98601.50;5049432;28;20139;-59
2021/08/01 06:10:14;;;;;;;8.27;4.97;;;;;;;27.22;36.91;98614.00;5049938;28;20132;-60
2021/08/01 06:12:40;;;;;;;10.07;4.97;;;;;;;27.43;37.66;98610.78;5049506;28;20494;-59
2021/08/01 06:15:07;;;;;;;7.40;4.80;;;;;;;27.53;37.27;98621.03;5050784;28;20538;-58
2021/08/01 06:17:32;;;;;;;9.32;5.30;;;;;;;27.54;36.20;98630.78;5049184;28;20045;-57
2021/08/01 06:19:58;;;;;;;10.93;5.07;;;;;;;27.35;36.92;98618.84;5049502;28;20518;-57
2021/08/01 06:22:24;;;;;;;10.05;5.13;;;;;;;27.41;36.89;98624.75;5050735;28;20037;-58
2021/08/01 06:24:51;;;;;;;8.32;5.05;;;;;;;27.53;36.77;98631.91;5052088;28;20049;-58
2021/08/01 06:27:17;;;;;;;11.48;4.80;;;;;;;27.46;36.90;98621.72;5050980;28;20044;-58
2021/08/01 06:29:43;;;;;;;8.82;5.13;;;;;;;27.37;37.56;98630.16;5054587;28;20068;-60
2021/08/01 06:32:09;;;;;;;10.27;5.07;;;;;;;27.33;37.29;98623.88;5036241;28;20179;-58
2021/08/01 06:34:37;;;;;;;7.82;4.80;;;;;;;27.29;37.89;98625.75;5054609;28;20524;-58
2021/08/01 06:37:03;;;;;;;9.57;5.05;;;;;;;27.01;38.06;98622.63;5019911;28;20041;-59
2021/08/01 06:39:28;;;;;;;9.07;5.28;;;;;;;26.67;39.91;98614.28;5053884;28;20052;-59
2021/08/01 06:41:54;;;;;;;11.07;5.25;;;;;;;26.47;40.32;98600.75;5053968;28;20191;-58
2021/08/01 06:44:21;;;;;;;8.73;5.78;;;;;;;26.57;39.53;98607.53;5036047;28;20045;-59
2021/08/01 06:46:46;;;;;;;9.27;5.63;;;;;;;26.59;39.67;98601.72;5053831;28;20119;-58
2021/08/01 06:49:12;;;;;;;12.10;6.05;;;;;;;26.55;40.33;98607.09;5054452;28;20146;-59
2021/08/01 06:51:38;;;;;;;15.13;5.63;;;;;;;26.71;39.40;98610.50;5053894;28;20057;-58
2021/08/01 06:54:04;;;;;;;12.40;5.88;;;;;;;27.04;38.87;98609.06;5054150;28;20063;-58
2021/08/01 06:56:30;;;;;;;7.75;5.32;;;;;;;27.29;39.24;98603.22;5054113;28;20048;-58
2021/08/01 06:58:56;;;;;;;10.43;5.25;;;;;;;27.51;37.59;98598.84;5054170;28;20037;-57
2021/08/01 07:01:22;;;;;;;9.55;5.38;;;;;;;27.57;37.80;98602.81;5035939;28;20056;-58
2021/08/01 07:03:48;;;;;;;11.43;5.38;;;;;;;27.85;36.52;98605.91;5054110;28;20060;-58
2021/08/01 07:06:14;;;;;;;10.85;5.75;;;;;;;28.03;36.46;98603.38;5053863;28;20053;-57
2021/08/01 07:08:40;;;;;;;8.00;5.05;;;;;;;28.40;35.26;98610.75;5054115;28;20032;-57
2021/08/01 07:11:05;;;;;;;9.32;4.80;;;;;;;28.29;34.87;98602.47;5052219;28;20521;-57
2021/08/01 07:13:31;;;;;;;7.82;5.00;;;;;;;28.18;35.71;98607.03;5051999;28;20495;-58
2021/08/01 07:16:04;;;;;;;5.57;4.30;;;;;;;28.22;35.45;98602.41;5052348;28;20041;-58
2021/08/01 07:18:30;;;;;;;9.25;4.13;;;;;;;28.23;35.02;98600.44;5067758;28;20052;-55
2021/08/01 07:20:57;;;;;;;6.75;4.35;;;;;;;28.26;34.46;98602.44;5072385;28;20131;-59
2021/08/01 07:23:22;;;;;;;7.00;4.55;;;;;;;28.37;34.51;98603.31;5073450;28;20505;-59
2021/08/01 07:25:48;;;;;;;6.53;4.43;;;;;;;28.23;35.15;98605.91;5071690;28;20051;-59
2021/08/01 07:28:14;;;;;;;13.60;4.80;;;;;;;28.17;35.35;98597.28;5071433;28;20146;-60
2021/08/01 07:30:40;;;;;;;8.20;4.50;;;;;;;28.11;34.90;98598.78;5049141;28;20045;-58
2021/08/01 07:33:05;;;;;;;6.88;4.03;;;;;;;28.05;34.56;98603.00;5052738;28;20456;-59
2021/08/01 07:35:31;;;;;;;7.70;4.05;;;;;;;27.82;35.35;98582.13;5051220;28;20574;-60
2021/08/01 07:37:57;;;;;;;7.20;4.68;;;;;;;27.98;35.43;98608.38;5034453;28;20037;-58
2021/08/01 07:40:23;;;;;;;8.50;4.93;;;;;;;28.10;34.66;98610.84;5052841;28;20418;-60
2021/08/01 07:42:48;;;;;;;6.95;4.38;;;;;;;28.24;34.78;98602.03;5052415;28;20103;-60
2021/08/01 07:45:31;;;;;;;7.95;4.35;;;;;;;28.07;34.67;98606.16;5034229;28;20138;-59
2021/08/01 07:47:57;;;;;;;5.50;4.25;;;;;;;28.08;35.46;98600.31;5052359;28;20136;-58
2021/08/01 07:50:23;;;;;;;8.63;4.35;;;;;;;28.11;35.19;98587.09;5051440;28;20139;-59
2021/08/01 07:52:48;;;;;;;6.90;4.50;;;;;;;28.34;34.37;98601.34;5051387;28;20045;-60
2021/08/01 07:55:15;;;;;;;9.10;4.35;;;;;;;28.35;34.52;98593.94;5052923;28;20521;-59
2021/08/01 07:57:42;;;;;;;6.53;4.10;;;;;;;28.25;35.53;98598.94;5051274;28;20506;-59
2021/08/01 08:00:09;;;;;;;5.72;4.20;;;;;;;28.47;35.53;98599.16;5052687;28;20542;-58
2021/08/01 08:02:44;;;;;;;10.43;4.40;;;;;;;28.51;35.21;98598.03;5052293;28;20090;-57
2021/08/01 08:05:12;;;;;;;8.18;4.32;;;;;;;28.54;34.97;98593.78;5034713;28;20562;-59
2021/08/01 08:07:37;;;;;;;5.78;4.40;;;;;;;28.44;35.40;98597.16;5052427;28;20068;-61
2021/08/01 08:10:05;;;;;;;6.68;3.95;;;;;;;28.43;34.44;98595.63;5052421;28;20510;-59
2021/08/01 08:12:31;;;;;;;7.32;4.22;;;;;;;28.55;34.60;98598.06;5052194;28;20040;-58
2021/08/01 08:14:57;;;;;;;7.20;4.55;;;;;;;28.52;34.90;98596.88;5051775;28;20082;-60
2021/08/01 08:17:22;;;;;;;6.72;4.50;;;;;;;28.52;35.17;98599.59;5051611;28;20499;-61
2021/08/01 08:19:49;;;;;;;10.05;4.82;;;;;;;28.66;34.96;98606.34;5034286;28;20046;-59
2021/08/01 08:22:14;;;;;;;10.77;4.53;;;;;;;28.71;34.76;98603.25;5052073;28;20049;-60
2021/08/01 08:24:40;;;;;;;7.80;4.38;;;;;;;28.45;34.50;98599.53;5051944;28;20059;-61
2021/08/01 08:27:06;;;;;;;7.35;4.22;;;;;;;28.59;35.47;98601.63;5051813;28;20182;-60
2021/08/01 08:29:32;;;;;;;7.45;4.30;;;;;;;28.55;34.71;98608.97;5051194;28;20139;-60
2021/08/01 08:31:59;;;;;;;5.15;4.35;;;;;;;28.47;34.50;98604.59;5051591;28;20041;-62
2021/08/01 08:34:25;;;;;;;9.00;4.95;;;;;;;28.34;35.41;98595.91;5050443;28;20045;-58
2021/08/01 08:36:52;;;;;;;10.13;4.35;;;;;;;28.17;35.42;98591.84;5033714;28;20426;-58
2021/08/01 08:39:21;;;;;;;9.43;4.75;;;;;;;28.05;35.26;98597.56;5052051;28;20499;-58
2021/08/01 08:41:48;;;;;;;8.52;4.70;;;;;;;28.07;35.79;98593.31;5051887;28;20049;-58
2021/08/01 08:44:15;;;;;;;9.93;4.80;;;;;;;28.17;35.39;98599.22;5051463;28;20048;-59
2021/08/01 08:46:41;;;;;;;5.68;4.07;;;;;;;28.13;35.73;98595.69;5051478;28;20147;-58
2021/08/01 08:49:09;;;;;;;7.95;4.20;;;;;;;28.06;35.77;98594.47;5050304;28;20045;-60
2021/08/01 08:51:37;;;;;;;7.57;4.82;;;;;;;27.98;35.59;98594.75;5050776;28;20487;-59
2021/08/01 08:54:10;;;;;;;7.25;4.55;;;;;;;27.98;35.94;98603.72;5051522;28;20032;-59
2021/08/01 08:56:36;;;;;;;9.10;4.32;;;;;;;27.84;35.64;98596.16;5051447;28;20056;-58
2021/08/01 08:59:04;;;;;;;11.70;4.70;;;;;;;27.98;35.34;98594.75;5051319;28;20733;-59
2021/08/01 09:01:30;;;;;;;9.07;4.53;;;;;;;27.90;35.56;98593.88;5051436;28;20067;-59
2021/08/01 09:03:56;;;;;;;9.25;4.90;;;;;;;28.00;36.12;98598.69;5051055;28;20069;-59
2021/08/01 09:06:22;;;;;;;9.23;4.80;;;;;;;27.75;36.47;98584.75;5051281;28;20507;-60
2021/08/01 09:08:47;;;;;;;6.57;4.70;;;;;;;27.72;36.27;98593.66;5051396;28;20036;-61
2021/08/01 09:11:13;;;;;;;6.22;4.57;;;;;;;27.71;36.91;98592.09;5049801;28;20502;-60
2021/08/01 09:13:53;;;;;;;9.90;5.10;;;;;;;27.78;36.65;98597.66;5050994;28;20032;-59
2021/08/01 09:16:21;;;;;;;13.20;4.57;;;;;;;27.69;36.67;98593.63;5051190;28;20128;-59
2021/08/01 09:18:47;;;;;;;10.05;5.13;;;;;;;27.69;36.84;98593.63;5050872;28;20059;-60
2021/08/01 09:21:33;;;;;;;7.53;4.38;;;;;;;27.66;37.53;98608.75;5051013;28;20041;-60
2021/08/01 09:23:59;;;;;;;9.30;4.78;;;;;;;27.48;37.37;98615.91;5049840;28;20147;-60
2021/08/01 09:26:41;;;;;;;12.38;5.05;;;;;;;27.22;37.94;98631.09;5051229;28;20071;-61
2021/08/01 09:29:07;;;;;;;7.88;4.68;;;;;;;26.95;38.25;98620.19;5050991;28;20043;-59
2021/08/01 09:31:32;;;;;;;11.13;4.90;;;;;;;26.77;38.72;98623.75;5051104;28;20493;-58
2021/08/01 09:33:59;;;;;;;8.38;4.68;;;;;;;26.80;38.42;98629.28;5049712;28;20047;-58
2021/08/01 09:36:26;;;;;;;5.70;4.55;;;;;;;26.76;38.75;98627.66;5016859;28;20049;-61
2021/08/01 09:38:56;;;;;;;9.93;4.85;;;;;;;26.83;38.51;98623.13;5051063;28;20045;-60
2021/08/01 09:41:23;;;;;;;8.57;5.68;;;;;;;26.79;38.87;98624.19;5033074;28;20053;-59
2021/08/01 09:43:51;;;;;;;9.65;4.90;;;;;;;26.69;39.55;98628.31;5049924;28;20041;-60
2021/08/01 09:46:18;;;;;;;11.63;4.88;;;;;;;26.62;39.48;98639.06;5050589;28;20061;-59
2021/08/01 09:48:44;;;;;;;9.50;4.80;;;;;;;26.61;39.78;98637.50;5050918;28;20128;-59
2021/08/01 09:51:10;;;;;;;9.48;5.20;;;;;;;26.59;40.05;98634.34;5050242;28;20057;-61
2021/08/01 09:53:39;;;;;;;9.80;5.07;;;;;;;26.44;40.42;98638.72;5049777;28;20064;-59
2021/08/01 09:56:17;;;;;;;10.93;4.90;;;;;;;26.37;40.76;98647.53;5051034;28;20045;-59
2021/08/01 09:58:44;;;;;;;9.20;5.38;;;;;;;26.30;40.99;98639.25;5050703;28;20128;-61
2021/08/01 10:01:10;;;;;;;11.45;5.10;;;;;;;26.21;41.73;98646.88;5051130;28;20129;-59
2021/08/01 10:03:43;;;;;;;10.82;5.57;;;;;;;26.22;41.83;98643.78;5054763;28;20055;-58
2021/08/01 10:06:22;;;;;;;10.00;5.03;;;;;;;26.23;42.55;98649.97;5054815;28;20041;-58
2021/08/01 10:08:49;;;;;;;9.77;5.60;;;;;;;26.33;42.69;98645.91;5054858;28;20118;-62
2021/08/01 10:11:18;;;;;;;6.97;5.28;;;;;;;26.38;42.77;98640.94;5054638;28;20053;-64
2021/08/01 10:13:46;;;;;;;8.77;5.30;;;;;;;26.34;43.21;98647.47;5054328;28;20052;-61
2021/08/01 10:16:12;;;;;;;7.10;5.60;;;;;;;26.25;43.82;98645.75;5054158;28;20060;-62
2021/08/01 10:18:38;;;;;;;6.40;5.38;;;;;;;26.17;44.71;98635.91;5054152;28;20111;-60
2021/08/01 10:21:05;;;;;;;8.07;5.70;;;;;;;26.08;45.04;98643.50;5054428;28;20356;-60
2021/08/01 10:23:40;;;;;;;10.05;6.10;;;;;;;26.04;45.90;98648.88;5036116;28;20056;-59
2021/08/01 10:26:08;;;;;;;11.07;5.85;;;;;;;25.94;46.31;98645.94;5054462;28;20041;-60
2021/08/01 10:28:37;;;;;;;10.88;6.28;;;;;;;25.82;46.71;98652.28;5054012;28;20049;-59
2021/08/01 10:31:04;;;;;;;8.98;6.28;;;;;;;25.65;48.33;98639.91;5054346;28;20410;-58
2021/08/01 10:33:38;;;;;;;14.02;6.28;;;;;;;25.46;48.45;98640.66;5052919;28;20037;-59
2021/08/01 10:36:05;;;;;;;7.93;6.30;;;;;;;25.41;49.12;98635.50;5054116;28;20040;-60
2021/08/01 10:38:35;;;;;;;11.23;6.70;;;;;;;25.28;50.12;98631.34;5052926;28;20045;-57
2021/08/01 10:41:01;;;;;;;9.70;6.88;;;;;;;25.25;50.46;98626.63;5036262;28;20045;-59
2021/08/01 10:43:30;;;;;;;12.00;6.63;;;;;;;25.18;50.93;98613.69;5052031;28;20049;-60
2021/08/01 10:45:57;;;;;;;9.80;6.70;;;;;;;25.13;50.89;98612.03;5052485;28;20096;-58
2021/08/01 10:48:28;;;;;;;9.23;6.55;;;;;;;25.08;51.40;98603.34;5036165;28;20041;-58
2021/08/01 10:50:54;;;;;;;7.95;6.53;;;;;;;25.07;51.78;98604.50;5052744;28;20053;-58
2021/08/01 10:53:24;;;;;;;8.60;7.10;;;;;;;25.07;51.34;98588.22;5052404;28;20052;-57
2021/08/01 10:55:51;;;;;;;8.23;6.88;;;;;;;24.96;51.63;98566.28;5053877;28;20049;-57
2021/08/01 10:58:18;;;;;;;8.63;7.13;;;;;;;24.75;51.72;98552.25;5053258;28;20143;-59
2021/08/01 11:01:01;;;;;;;8.85;6.82;;;;;;;24.52;52.40;98539.31;5053428;28;20087;-59
2021/08/01 11:03:28;;;;;;;10.93;7.25;;;;;;;24.40;52.50;98528.56;5052218;28;20094;-60
2021/08/01 11:05:54;;;;;;;9.85;7.40;;;;;;;24.29;52.85;98522.09;5052161;28;20045;-59
2021/08/01 11:08:20;;;;;;;10.60;7.00;;;;;;;24.25;52.60;98530.13;5052358;28;20040;-59
2021/08/01 11:10:46;;;;;;;8.63;6.75;;;;;;;24.18;52.70;98527.25;5052169;28;20496;-61
2021/08/01 11:13:24;;;;;;;9.88;7.35;;;;;;;24.17;53.17;98531.88;5052321;28;20053;-58
2021/08/01 11:15:50;;;;;;;10.30;7.60;;;;;;;24.12;53.22;98534.84;5053455;28;20052;-60
2021/08/01 11:18:54;;;;;;;10.02;7.25;;;;;;;24.03;53.11;98539.63;5052968;28;20060;-59
2021/08/01 11:21:35;;;;;;;13.98;7.65;;;;;;;24.02;53.75;98546.94;5053267;28;20534;-60
2021/08/01 11:24:00;;;;;;;10.80;7.43;;;;;;;24.07;53.97;98556.75;5053595;28;20375;-59
2021/08/01 11:26:27;;;;;;;9.75;6.90;;;;;;;24.11;53.23;98543.31;5052754;28;20041;-60
2021/08/01 11:29:08;;;;;;;13.13;7.13;;;;;;;24.13;53.61;98543.75;5051354;28;20881;-60
2021/08/01 11:31:34;;;;;;;10.65;7.30;;;;;;;24.07;54.08;98537.03;5051503;28;20498;-59
2021/08/01 11:34:20;;;;;;;10.32;6.97;;;;;;;24.24;53.96;98544.81;5034601;28;20041;-60
2021/08/01 11:36:46;;;;;;;10.75;6.95;;;;;;;24.31;53.83;98549.63;5052342;28;20052;-59